createdAt,value
2022-10-23T00:00:45.095Z,1011.06
2022-10-23T00:02:45.840Z,1010.99
2022-10-23T00:03:45.061Z,1011.06
2022-10-23T00:04:45.103Z,1011.04
2022-10-23T00:05:45.123Z,1011.04
2022-10-23T00:06:45.178Z,1010.99
2022-10-23T00:07:45.391Z,1010.96
2022-10-23T00:08:45.464Z,1010.93
2022-10-23T00:09:45.249Z,1010.93
2022-10-23T00:10:45.281Z,1010.93
2022-10-23T00:11:45.314Z,1010.88
2022-10-23T00:12:45.471Z,1010.94
2022-10-23T00:13:45.473Z,1010.92
2022-10-23T00:14:45.707Z,1010.94
2022-10-23T00:15:45.453Z,1010.93
2022-10-23T00:16:45.522Z,1010.94
2022-10-23T00:17:45.736Z,1010.98
2022-10-23T00:18:45.542Z,1010.99
2022-10-23T00:19:45.566Z,1011.01
2022-10-23T00:20:45.836Z,1011.03
2022-10-23T00:22:45.674Z,1011.01
2022-10-23T00:23:45.689Z,1011.05
2022-10-23T00:24:45.720Z,1011.03
2022-10-23T00:25:45.748Z,1011.04
2022-10-23T00:27:46.137Z,1011.01
2022-10-23T00:28:45.844Z,1010.98
2022-10-23T00:29:45.876Z,1010.95
2022-10-23T00:30:45.906Z,1010.95
2022-10-23T00:31:45.934Z,1010.94
2022-10-23T00:32:45.976Z,1010.94
2022-10-23T00:33:46.011Z,1011.01
2022-10-23T00:34:46.326Z,1011.02
2022-10-23T00:35:51.887Z,1011.05
2022-10-23T00:36:46.085Z,1011.04
2022-10-23T00:37:46.120Z,1011.04
2022-10-23T00:38:46.167Z,1011.01
2022-10-23T00:39:46.187Z,1010.98
2022-10-23T00:40:46.264Z,1010.92
2022-10-23T00:41:46.560Z,1010.92
2022-10-23T00:42:46.395Z,1010.93
2022-10-23T00:43:46.311Z,1010.83
2022-10-23T00:44:46.352Z,1010.89
2022-10-23T00:45:46.391Z,1010.88
2022-10-23T00:46:46.425Z,1010.89
2022-10-23T00:47:46.438Z,1010.86
2022-10-23T00:48:46.765Z,1010.88
2022-10-23T00:49:46.563Z,1010.80
2022-10-23T00:50:46.533Z,1010.82
2022-10-23T00:51:46.639Z,1010.78
2022-10-23T00:52:46.589Z,1010.76
2022-10-23T00:53:52.823Z,1010.74
2022-10-23T00:54:48.134Z,1010.74
2022-10-23T00:55:47.083Z,1010.77
2022-10-23T00:56:46.715Z,1010.80
2022-10-23T00:57:46.744Z,1010.77
2022-10-23T00:58:46.774Z,1010.74
2022-10-23T00:59:46.812Z,1010.79
2022-10-23T01:00:46.851Z,1010.77
2022-10-23T01:01:47.044Z,1010.78
2022-10-23T01:02:47.373Z,1010.78
2022-10-23T01:03:47.049Z,1010.77
2022-10-23T01:04:46.965Z,1010.76
2022-10-23T01:06:47.025Z,1010.74
2022-10-23T01:07:47.056Z,1010.73
2022-10-23T01:08:47.144Z,1010.75
2022-10-23T01:09:47.427Z,1010.79
2022-10-23T01:10:47.167Z,1010.76
2022-10-23T01:11:47.197Z,1010.75
2022-10-23T01:12:47.319Z,1010.73
2022-10-23T01:13:47.855Z,1010.76
2022-10-23T01:14:47.419Z,1010.76
2022-10-23T01:15:47.400Z,1010.76
2022-10-23T01:16:47.592Z,1010.75
2022-10-23T01:17:47.831Z,1010.75
2022-10-23T01:18:47.400Z,1010.75
2022-10-23T01:19:47.431Z,1010.76
2022-10-23T01:20:47.513Z,1010.80
2022-10-23T01:21:47.489Z,1010.76
2022-10-23T01:22:47.524Z,1010.75
2022-10-23T01:23:47.852Z,1010.77
2022-10-23T01:24:47.583Z,1010.72
2022-10-23T01:25:47.617Z,1010.73
2022-10-23T01:26:47.772Z,1010.70
2022-10-23T01:27:47.674Z,1010.70
2022-10-23T01:28:47.717Z,1010.69
2022-10-23T01:29:47.793Z,1010.63
2022-10-23T01:30:48.077Z,1010.63
2022-10-23T01:31:47.799Z,1010.59
2022-10-23T01:32:47.834Z,1010.59
2022-10-23T01:33:47.865Z,1010.56
2022-10-23T01:34:47.912Z,1010.58
2022-10-23T01:35:47.944Z,1010.56
2022-10-23T01:36:48.057Z,1010.56
2022-10-23T01:37:48.515Z,1010.51
2022-10-23T01:38:48.038Z,1010.54
2022-10-23T01:39:48.063Z,1010.51
2022-10-23T01:40:48.083Z,1010.55
2022-10-23T01:41:48.118Z,1010.55
2022-10-23T01:42:48.166Z,1010.56
2022-10-23T01:43:48.231Z,1010.57
2022-10-23T01:44:48.507Z,1010.56
2022-10-23T01:45:48.241Z,1010.59
2022-10-23T01:46:48.332Z,1010.57
2022-10-23T01:47:48.302Z,1010.53
2022-10-23T01:48:48.342Z,1010.56
2022-10-23T01:49:48.366Z,1010.56
2022-10-23T01:50:48.706Z,1010.55
2022-10-23T01:51:48.427Z,1010.53
2022-10-23T01:53:48.489Z,1010.51
2022-10-23T01:54:48.522Z,1010.45
2022-10-23T01:55:48.559Z,1010.46
2022-10-23T01:56:48.888Z,1010.43
2022-10-23T01:57:48.616Z,1010.37
2022-10-23T01:58:48.723Z,1010.35
2022-10-23T01:59:48.682Z,1010.35
2022-10-23T02:00:48.705Z,1010.36
2022-10-23T02:01:48.858Z,1010.34
2022-10-23T02:02:49.070Z,1010.33
2022-10-23T02:04:48.979Z,1010.30
2022-10-23T02:05:48.867Z,1010.26
2022-10-23T02:06:50.902Z,1010.25
2022-10-23T02:07:49.018Z,1010.27
2022-10-23T02:08:49.097Z,1010.28
2022-10-23T02:09:49.286Z,1010.23
2022-10-23T02:10:49.023Z,1010.19
2022-10-23T02:11:49.057Z,1010.18
2022-10-23T02:12:49.245Z,1010.15
2022-10-23T02:13:49.112Z,1010.12
2022-10-23T02:14:49.162Z,1010.13
2022-10-23T02:15:49.180Z,1010.09
2022-10-23T02:16:49.456Z,1010.12
2022-10-23T02:17:49.246Z,1010.12
2022-10-23T02:18:49.267Z,1010.12
2022-10-23T02:19:49.298Z,1010.12
2022-10-23T02:20:49.328Z,1010.11
2022-10-23T02:21:49.367Z,1010.14
2022-10-23T02:22:49.393Z,1010.13
2022-10-23T02:23:52.457Z,1010.15
2022-10-23T02:24:49.460Z,1010.15
2022-10-23T02:25:49.482Z,1010.15
2022-10-23T02:26:49.519Z,1010.12
2022-10-23T02:27:49.649Z,1010.11
2022-10-23T02:28:49.577Z,1010.13
2022-10-23T02:29:49.659Z,1010.09
2022-10-23T02:30:49.908Z,1010.06
2022-10-23T02:31:49.668Z,1010.02
2022-10-23T02:32:49.811Z,1010.00
2022-10-23T02:33:49.738Z,1009.95
2022-10-23T02:34:49.764Z,1009.90
2022-10-23T02:35:49.796Z,1009.84
2022-10-23T02:36:49.829Z,1009.83
2022-10-23T02:37:50.223Z,1009.78
2022-10-23T02:38:50.054Z,1009.81
2022-10-23T02:39:49.928Z,1009.84
2022-10-23T02:40:49.948Z,1009.81
2022-10-23T02:41:49.980Z,1009.83
2022-10-23T02:43:50.177Z,1009.82
2022-10-23T02:44:50.377Z,1009.86
2022-10-23T02:45:50.114Z,1009.81
2022-10-23T02:46:50.207Z,1009.78
2022-10-23T02:47:50.180Z,1009.77
2022-10-23T02:48:50.306Z,1009.72
2022-10-23T02:49:50.237Z,1009.74
2022-10-23T02:50:50.259Z,1009.76
2022-10-23T02:51:50.646Z,1009.71
2022-10-23T02:52:50.324Z,1009.67
2022-10-23T02:53:50.387Z,1009.65
2022-10-23T02:54:50.402Z,1009.65
2022-10-23T02:55:50.490Z,1009.64
2022-10-23T02:56:50.755Z,1009.65
2022-10-23T02:57:50.490Z,1009.62
2022-10-23T02:58:50.763Z,1009.60
2022-10-23T02:59:50.545Z,1009.60
2022-10-23T03:00:50.579Z,1009.60
2022-10-23T03:01:50.796Z,1009.56
2022-10-23T03:02:50.652Z,1009.57
2022-10-23T03:04:50.704Z,1009.59
2022-10-23T03:05:51.026Z,1009.63
2022-10-23T03:06:50.769Z,1009.63
2022-10-23T03:07:50.803Z,1009.63
2022-10-23T03:08:50.824Z,1009.62
2022-10-23T03:10:50.887Z,1009.58
2022-10-23T03:11:50.913Z,1009.54
2022-10-23T03:12:51.247Z,1009.55
2022-10-23T03:13:50.988Z,1009.54
2022-10-23T03:14:51.016Z,1009.48
2022-10-23T03:15:51.063Z,1009.43
2022-10-23T03:16:51.120Z,1009.36
2022-10-23T03:17:51.160Z,1009.28
2022-10-23T03:18:51.158Z,1009.20
2022-10-23T03:19:51.465Z,1009.19
2022-10-23T03:20:51.206Z,1009.17
2022-10-23T03:21:51.321Z,1009.21
2022-10-23T03:22:51.258Z,1009.19
2022-10-23T03:23:52.263Z,1009.22
2022-10-23T03:24:51.421Z,1009.19
2022-10-23T03:25:51.606Z,1009.16
2022-10-23T03:26:51.690Z,1009.16
2022-10-23T03:27:51.418Z,1009.10
2022-10-23T03:28:51.447Z,1009.14
2022-10-23T03:29:51.478Z,1009.15
2022-10-23T03:30:51.505Z,1009.14
2022-10-23T03:31:51.695Z,1009.12
2022-10-23T03:32:52.506Z,1009.14
2022-10-23T03:33:51.604Z,1009.15
2022-10-23T03:34:51.651Z,1009.19
2022-10-23T03:35:51.665Z,1009.18
2022-10-23T03:36:51.691Z,1009.19
2022-10-23T03:37:51.830Z,1009.15
2022-10-23T03:38:52.062Z,1009.16
2022-10-23T03:39:51.789Z,1009.13
2022-10-23T03:42:51.881Z,1009.18
2022-10-23T03:43:51.975Z,1009.21
2022-10-23T03:44:52.246Z,1009.20
2022-10-23T03:45:51.975Z,1009.27
2022-10-23T03:46:51.998Z,1009.31
2022-10-23T03:47:52.037Z,1009.32
2022-10-23T03:49:52.201Z,1009.31
2022-10-23T03:50:52.250Z,1009.36
2022-10-23T03:51:52.560Z,1009.34
2022-10-23T03:52:52.202Z,1009.30
2022-10-23T03:53:52.319Z,1009.34
2022-10-23T03:54:52.263Z,1009.31
2022-10-23T03:55:52.284Z,1009.32
2022-10-23T03:56:55.077Z,1009.34
2022-10-23T03:57:52.343Z,1009.36
2022-10-23T03:58:52.624Z,1009.32
2022-10-23T03:59:52.405Z,1009.32
2022-10-23T04:00:52.435Z,1009.33
2022-10-23T04:01:52.598Z,1009.27
2022-10-23T04:02:52.652Z,1009.24
2022-10-23T04:03:52.530Z,1009.19
2022-10-23T04:04:52.659Z,1009.15
2022-10-23T04:05:52.993Z,1009.12
2022-10-23T04:06:52.949Z,1009.14
2022-10-23T04:07:52.654Z,1009.09
2022-10-23T04:08:52.686Z,1009.07
2022-10-23T04:09:52.719Z,1009.05
2022-10-23T04:10:52.755Z,1009.07
2022-10-23T04:11:52.786Z,1009.07
2022-10-23T04:12:53.062Z,1009.07
2022-10-23T04:13:52.841Z,1009.12
2022-10-23T04:14:53.776Z,1009.10
2022-10-23T04:15:52.903Z,1009.10
2022-10-23T04:16:52.948Z,1009.11
2022-10-23T04:17:52.980Z,1009.08
2022-10-23T04:18:53.488Z,1009.13
2022-10-23T04:19:53.328Z,1009.13
2022-10-23T04:20:53.060Z,1009.14
2022-10-23T04:21:53.092Z,1009.14
2022-10-23T04:22:53.143Z,1009.07
2022-10-23T04:23:53.150Z,1009.04
2022-10-23T04:24:53.184Z,1009.06
2022-10-23T04:26:53.548Z,1009.03
2022-10-23T04:27:53.380Z,1009.01
2022-10-23T04:28:53.325Z,1009.05
2022-10-23T04:30:53.375Z,1009.11
2022-10-23T04:31:53.404Z,1009.06
2022-10-23T04:33:53.538Z,1009.00
2022-10-23T04:34:53.791Z,1009.02
2022-10-23T04:35:53.532Z,1009.02
2022-10-23T04:36:53.559Z,1009.00
2022-10-23T04:37:53.663Z,1008.96
2022-10-23T04:38:53.646Z,1008.94
2022-10-23T04:39:53.664Z,1008.91
2022-10-23T04:40:53.680Z,1008.87
2022-10-23T04:41:54.018Z,1008.84
2022-10-23T04:42:53.741Z,1008.79
2022-10-23T04:43:53.826Z,1008.77
2022-10-23T04:44:53.805Z,1008.76
2022-10-23T04:45:53.838Z,1008.77
2022-10-23T04:48:54.239Z,1008.77
2022-10-23T04:49:53.978Z,1008.81
2022-10-23T04:50:53.994Z,1008.81
2022-10-23T04:51:54.031Z,1008.81
2022-10-23T04:52:54.055Z,1008.79
2022-10-23T04:53:54.095Z,1008.78
2022-10-23T04:54:54.433Z,1008.75
2022-10-23T04:55:54.448Z,1008.73
2022-10-23T04:56:54.188Z,1008.71
2022-10-23T04:57:54.212Z,1008.70
2022-10-23T04:58:54.352Z,1008.66
2022-10-23T04:59:55.332Z,1008.63
2022-10-23T05:01:54.374Z,1008.70
2022-10-23T05:02:54.670Z,1008.66
2022-10-23T05:03:54.394Z,1008.64
2022-10-23T05:04:54.436Z,1008.66
2022-10-23T05:05:54.457Z,1008.67
2022-10-23T05:06:54.510Z,1008.70
2022-10-23T05:07:54.534Z,1008.76
2022-10-23T05:08:54.608Z,1008.73
2022-10-23T05:09:54.882Z,1008.71
2022-10-23T05:10:54.645Z,1008.72
2022-10-23T05:12:54.683Z,1008.65
2022-10-23T05:13:54.724Z,1008.64
2022-10-23T05:14:54.772Z,1008.66
2022-10-23T05:15:54.771Z,1008.69
2022-10-23T05:16:55.103Z,1008.69
2022-10-23T05:17:54.887Z,1008.67
2022-10-23T05:18:54.862Z,1008.63
2022-10-23T05:19:54.899Z,1008.63
2022-10-23T05:20:54.926Z,1008.62
2022-10-23T05:21:54.961Z,1008.57
2022-10-23T05:22:54.989Z,1008.50
2022-10-23T05:23:55.316Z,1008.45
2022-10-23T05:24:55.129Z,1008.43
2022-10-23T05:25:55.133Z,1008.42
2022-10-23T05:26:55.131Z,1008.39
2022-10-23T05:27:55.142Z,1008.37
2022-10-23T05:28:55.178Z,1008.41
2022-10-23T05:30:55.490Z,1008.46
2022-10-23T05:31:55.270Z,1008.43
2022-10-23T05:32:55.310Z,1008.40
2022-10-23T05:33:55.357Z,1008.42
2022-10-23T05:34:55.363Z,1008.39
2022-10-23T05:35:55.396Z,1008.38
2022-10-23T05:36:55.421Z,1008.36
2022-10-23T05:38:55.812Z,1008.36
2022-10-23T05:40:56.449Z,1008.39
2022-10-23T05:41:55.582Z,1008.38
2022-10-23T05:42:55.634Z,1008.36
2022-10-23T05:43:55.642Z,1008.33
2022-10-23T05:44:55.672Z,1008.33
2022-10-23T05:45:56.010Z,1008.33
2022-10-23T05:46:55.746Z,1008.28
2022-10-23T05:48:05.610Z,1008.31
2022-10-23T05:48:55.820Z,1008.27
2022-10-23T05:49:55.839Z,1008.24
2022-10-23T05:50:55.888Z,1008.23
2022-10-23T05:51:55.994Z,1008.21
2022-10-23T05:52:56.224Z,1008.19
2022-10-23T05:54:55.982Z,1008.20
2022-10-23T05:55:56.317Z,1008.11
2022-10-23T05:56:56.101Z,1008.15
2022-10-23T05:58:56.129Z,1008.09
2022-10-23T05:59:56.441Z,1008.06
2022-10-23T06:00:56.325Z,1008.07
2022-10-23T06:01:56.374Z,1008.06
2022-10-23T06:02:56.230Z,1008.03
2022-10-23T06:03:56.263Z,1007.99
2022-10-23T06:04:56.293Z,1007.99
2022-10-23T06:05:56.382Z,1007.97
2022-10-23T06:06:56.608Z,1007.97
2022-10-23T06:07:56.403Z,1007.97
2022-10-23T06:08:56.427Z,1007.92
2022-10-23T06:09:56.514Z,1007.97
2022-10-23T06:10:56.589Z,1007.98
2022-10-23T06:11:56.514Z,1007.99
2022-10-23T06:12:56.543Z,1007.98
2022-10-23T06:14:56.623Z,1008.01
2022-10-23T06:15:56.687Z,1008.00
2022-10-23T06:17:56.695Z,1008.00
2022-10-23T06:18:56.756Z,1008.04
2022-10-23T06:19:57.029Z,1008.00
2022-10-23T06:20:56.798Z,1008.04
2022-10-23T06:21:56.829Z,1008.01
2022-10-23T06:22:56.856Z,1007.99
2022-10-23T06:23:56.932Z,1008.02
2022-10-23T06:24:56.988Z,1008.01
2022-10-23T06:25:57.251Z,1007.97
2022-10-23T06:26:56.982Z,1007.94
2022-10-23T06:27:57.012Z,1007.95
2022-10-23T06:28:57.039Z,1007.93
2022-10-23T06:29:57.073Z,1007.94
2022-10-23T06:30:57.380Z,1007.95
2022-10-23T06:31:57.432Z,1007.97
2022-10-23T06:33:57.545Z,1007.97
2022-10-23T06:34:57.255Z,1007.98
2022-10-23T06:35:57.275Z,1008.01
2022-10-23T06:36:57.325Z,1007.97
2022-10-23T06:37:57.319Z,1007.96
2022-10-23T06:38:57.648Z,1007.92
2022-10-23T06:39:57.384Z,1007.95
2022-10-23T06:40:57.434Z,1007.98
2022-10-23T06:41:57.458Z,1007.95
2022-10-23T06:42:57.473Z,1007.94
2022-10-23T06:43:57.612Z,1007.91
2022-10-23T06:44:57.780Z,1007.93
2022-10-23T06:45:57.822Z,1007.95
2022-10-23T06:47:57.650Z,1007.87
2022-10-23T06:48:57.781Z,1007.84
2022-10-23T06:50:57.722Z,1007.83
2022-10-23T06:51:57.758Z,1007.84
2022-10-23T06:52:58.036Z,1007.83
2022-10-23T06:54:57.849Z,1007.85
2022-10-23T06:55:57.879Z,1007.85
2022-10-23T06:56:57.915Z,1007.85
2022-10-23T06:57:57.950Z,1007.84
2022-10-23T06:58:58.023Z,1007.85
2022-10-23T06:59:58.305Z,1007.86
2022-10-23T07:00:58.215Z,1007.87
2022-10-23T07:01:58.074Z,1007.85
2022-10-23T07:02:58.104Z,1007.88
2022-10-23T07:03:58.146Z,1007.85
2022-10-23T07:04:58.188Z,1007.92
2022-10-23T07:06:58.473Z,1007.89
2022-10-23T07:07:58.350Z,1007.88
2022-10-23T07:08:58.282Z,1007.84
2022-10-23T07:09:58.331Z,1007.78
2022-10-23T07:10:58.345Z,1007.80
2022-10-23T07:11:58.381Z,1007.82
2022-10-23T07:12:58.407Z,1007.79
2022-10-23T07:13:59.046Z,1007.79
2022-10-23T07:14:58.477Z,1007.76
2022-10-23T07:15:58.509Z,1007.77
2022-10-23T07:16:58.536Z,1007.84
2022-10-23T07:17:59.239Z,1007.80
2022-10-23T07:18:58.600Z,1007.76
2022-10-23T07:19:58.648Z,1007.76
2022-10-23T07:20:58.907Z,1007.80
2022-10-23T07:21:58.712Z,1007.82
2022-10-23T07:22:58.743Z,1007.86
2022-10-23T07:23:58.755Z,1007.83
2022-10-23T07:24:58.785Z,1007.86
2022-10-23T07:25:58.817Z,1007.87
2022-10-23T07:26:58.844Z,1007.87
2022-10-23T07:27:59.192Z,1007.84
2022-10-23T07:28:59.151Z,1007.84
2022-10-23T07:29:58.941Z,1007.83
2022-10-23T07:30:59.038Z,1007.88
2022-10-23T07:31:59.001Z,1007.83
2022-10-23T07:32:59.038Z,1007.79
2022-10-23T07:33:59.118Z,1007.80
2022-10-23T07:34:59.415Z,1007.81
2022-10-23T07:35:59.211Z,1007.80
2022-10-23T07:36:59.198Z,1007.72
2022-10-23T07:37:59.458Z,1007.75
2022-10-23T07:38:59.221Z,1007.71
2022-10-23T07:39:59.262Z,1007.71
2022-10-23T07:40:59.357Z,1007.74
2022-10-23T07:41:59.768Z,1007.70
2022-10-23T07:42:59.803Z,1007.66
2022-10-23T07:43:59.381Z,1007.66
2022-10-23T07:44:59.412Z,1007.66
2022-10-23T07:45:59.481Z,1007.67
2022-10-23T07:46:59.468Z,1007.59
2022-10-23T07:47:59.667Z,1007.62
2022-10-23T07:49:00.547Z,1007.60
2022-10-23T07:49:59.581Z,1007.60
2022-10-23T07:50:59.595Z,1007.59
2022-10-23T07:51:59.703Z,1007.56
2022-10-23T07:52:59.763Z,1007.55
2022-10-23T07:53:59.692Z,1007.50
2022-10-23T07:54:59.728Z,1007.51
2022-10-23T07:56:00.098Z,1007.49
2022-10-23T07:56:59.785Z,1007.50
2022-10-23T07:57:59.906Z,1007.49
2022-10-23T07:58:59.852Z,1007.49
2022-10-23T08:00:59.965Z,1007.57
2022-10-23T08:02:00.091Z,1007.55
2022-10-23T08:03:00.316Z,1007.57
2022-10-23T08:04:00.005Z,1007.52
2022-10-23T08:05:00.073Z,1007.56
2022-10-23T08:06:00.073Z,1007.57
2022-10-23T08:07:00.150Z,1007.53
2022-10-23T08:08:00.150Z,1007.52
2022-10-23T08:09:03.752Z,1007.55
2022-10-23T08:10:00.205Z,1007.49
2022-10-23T08:11:00.229Z,1007.48
2022-10-23T08:12:00.633Z,1007.51
2022-10-23T08:13:00.289Z,1007.49
2022-10-23T08:14:00.318Z,1007.45
2022-10-23T08:15:00.693Z,1007.50
2022-10-23T08:16:00.389Z,1007.50
2022-10-23T08:18:00.446Z,1007.50
2022-10-23T08:19:00.475Z,1007.44
2022-10-23T08:20:00.508Z,1007.44
2022-10-23T08:21:00.904Z,1007.45
2022-10-23T08:22:00.568Z,1007.46
2022-10-23T08:23:00.656Z,1007.48
2022-10-23T08:24:00.692Z,1007.50
2022-10-23T08:25:00.665Z,1007.57
2022-10-23T08:26:00.695Z,1007.55
2022-10-23T08:27:01.043Z,1007.57
2022-10-23T08:28:04.233Z,1007.57
2022-10-23T08:29:01.302Z,1007.57
2022-10-23T08:30:01.326Z,1007.58
2022-10-23T08:32:10.961Z,1007.52
2022-10-23T08:33:05.012Z,1007.57
2022-10-23T08:34:01.310Z,1007.59
2022-10-23T08:35:01.282Z,1007.57
2022-10-23T08:36:01.319Z,1007.60
2022-10-23T08:38:01.078Z,1007.57
2022-10-23T08:39:01.107Z,1007.56
2022-10-23T08:40:01.178Z,1007.54
2022-10-23T08:41:01.173Z,1007.49
2022-10-23T08:42:01.664Z,1007.50
2022-10-23T08:43:01.245Z,1007.44
2022-10-23T08:44:01.275Z,1007.45
2022-10-23T08:45:01.333Z,1007.42
2022-10-23T08:46:02.643Z,1007.49
2022-10-23T08:47:01.399Z,1007.45
2022-10-23T08:48:01.396Z,1007.45
2022-10-23T08:49:01.678Z,1007.43
2022-10-23T08:50:01.503Z,1007.45
2022-10-23T08:51:01.500Z,1007.42
2022-10-23T08:52:01.529Z,1007.42
2022-10-23T08:53:01.558Z,1007.44
2022-10-23T08:54:01.582Z,1007.40
2022-10-23T08:55:01.687Z,1007.39
2022-10-23T08:57:02.149Z,1007.28
2022-10-23T08:58:01.713Z,1007.24
2022-10-23T08:59:01.743Z,1007.26
2022-10-23T09:00:01.818Z,1007.24
2022-10-23T09:01:01.991Z,1007.22
2022-10-23T09:02:02.105Z,1007.25
2022-10-23T09:03:01.869Z,1007.16
2022-10-23T09:04:02.205Z,1007.19
2022-10-23T09:05:01.931Z,1007.16
2022-10-23T09:06:01.967Z,1007.13
2022-10-23T09:07:02.049Z,1007.11
2022-10-23T09:08:02.035Z,1007.09
2022-10-23T09:09:02.064Z,1007.07
2022-10-23T09:10:02.413Z,1007.05
2022-10-23T09:11:02.389Z,1007.05
2022-10-23T09:12:02.157Z,1007.04
2022-10-23T09:13:02.212Z,1007.08
2022-10-23T09:14:02.221Z,1007.06
2022-10-23T09:15:02.255Z,1007.13
2022-10-23T09:16:02.291Z,1007.14
2022-10-23T09:17:02.398Z,1007.19
2022-10-23T09:18:02.604Z,1007.13
2022-10-23T09:19:02.392Z,1007.11
2022-10-23T09:21:02.450Z,1007.08
2022-10-23T09:22:02.479Z,1007.00
2022-10-23T09:23:02.663Z,1007.01
2022-10-23T09:24:02.544Z,1006.95
2022-10-23T09:25:02.828Z,1006.99
2022-10-23T09:26:02.771Z,1006.99
2022-10-23T09:27:02.642Z,1006.92
2022-10-23T09:28:05.296Z,1006.95
2022-10-23T09:29:02.730Z,1006.95
2022-10-23T09:30:02.737Z,1006.90
2022-10-23T09:31:02.872Z,1006.92
2022-10-23T09:32:03.117Z,1006.93
2022-10-23T09:33:02.841Z,1006.92
2022-10-23T09:34:02.870Z,1006.90
2022-10-23T09:35:02.908Z,1006.87
2022-10-23T09:36:02.944Z,1006.90
2022-10-23T09:37:02.969Z,1006.93
2022-10-23T09:38:03.010Z,1006.87
2022-10-23T09:39:03.292Z,1006.83
2022-10-23T09:40:03.122Z,1006.85
2022-10-23T09:41:03.220Z,1006.82
2022-10-23T09:42:03.128Z,1006.83
2022-10-23T09:43:03.168Z,1006.78
2022-10-23T09:44:03.191Z,1006.85
2022-10-23T09:45:03.246Z,1006.75
2022-10-23T09:46:03.563Z,1006.75
2022-10-23T09:47:03.293Z,1006.71
2022-10-23T09:48:03.330Z,1006.70
2022-10-23T09:50:03.392Z,1006.62
2022-10-23T09:51:03.424Z,1006.61
2022-10-23T09:52:03.477Z,1006.65
2022-10-23T09:53:03.891Z,1006.62
2022-10-23T09:54:03.883Z,1006.63
2022-10-23T09:55:03.554Z,1006.58
2022-10-23T09:56:03.681Z,1006.54
2022-10-23T09:57:03.628Z,1006.48
2022-10-23T09:58:03.654Z,1006.48
2022-10-23T09:59:03.686Z,1006.50
2022-10-23T10:00:04.103Z,1006.51
2022-10-23T10:01:03.902Z,1006.52
2022-10-23T10:02:04.087Z,1006.49
2022-10-23T10:04:03.848Z,1006.44
2022-10-23T10:05:03.912Z,1006.43
2022-10-23T10:06:03.922Z,1006.42
2022-10-23T10:07:04.192Z,1006.49
2022-10-23T10:08:03.984Z,1006.47
2022-10-23T10:09:04.008Z,1006.47
2022-10-23T10:10:04.047Z,1006.48
2022-10-23T10:11:04.072Z,1006.43
2022-10-23T10:12:04.107Z,1006.37
2022-10-23T10:13:04.145Z,1006.32
2022-10-23T10:14:04.619Z,1006.34
2022-10-23T10:15:04.203Z,1006.31
2022-10-23T10:16:04.240Z,1006.30
2022-10-23T10:17:04.288Z,1006.20
2022-10-23T10:18:04.415Z,1006.21
2022-10-23T10:19:04.733Z,1006.21
2022-10-23T10:20:07.010Z,1006.20
2022-10-23T10:21:04.404Z,1006.20
2022-10-23T10:22:04.439Z,1006.16
2022-10-23T10:23:04.471Z,1006.13
2022-10-23T10:24:04.551Z,1006.16
2022-10-23T10:25:04.539Z,1006.17
2022-10-23T10:26:04.875Z,1006.17
2022-10-23T10:27:04.600Z,1006.15
2022-10-23T10:28:04.683Z,1006.09
2022-10-23T10:29:04.671Z,1006.06
2022-10-23T10:30:04.695Z,1006.06
2022-10-23T10:31:05.351Z,1006.06
2022-10-23T10:32:05.014Z,1006.00
2022-10-23T10:33:04.871Z,1006.10
2022-10-23T10:34:05.012Z,1006.02
2022-10-23T10:35:04.937Z,1006.05
2022-10-23T10:37:04.926Z,1005.97
2022-10-23T10:38:04.981Z,1005.97
2022-10-23T10:39:05.294Z,1005.91
2022-10-23T10:40:05.086Z,1005.95
2022-10-23T10:41:05.061Z,1005.91
2022-10-23T10:42:05.111Z,1005.90
2022-10-23T10:43:05.137Z,1005.85
2022-10-23T10:44:05.154Z,1005.80
2022-10-23T10:45:05.205Z,1005.80
2022-10-23T10:46:05.683Z,1005.80
2022-10-23T10:47:05.256Z,1005.74
2022-10-23T10:48:05.291Z,1005.69
2022-10-23T10:49:05.382Z,1005.68
2022-10-23T10:50:05.583Z,1005.67
2022-10-23T10:52:05.739Z,1005.61
2022-10-23T10:54:05.565Z,1005.55
2022-10-23T10:55:05.520Z,1005.56
2022-10-23T10:56:05.659Z,1005.53
2022-10-23T10:57:05.601Z,1005.51
2022-10-23T10:58:05.719Z,1005.56
2022-10-23T10:59:05.912Z,1005.59
2022-10-23T11:00:05.682Z,1005.55
2022-10-23T11:01:05.839Z,1005.56
2022-10-23T11:02:05.914Z,1005.54
2022-10-23T11:03:05.782Z,1005.56
2022-10-23T11:04:05.813Z,1005.57
2022-10-23T11:05:06.000Z,1005.55
2022-10-23T11:06:05.906Z,1005.54
2022-10-23T11:07:05.931Z,1005.47
2022-10-23T11:08:05.950Z,1005.52
2022-10-23T11:09:19.835Z,1005.55
2022-10-23T11:10:06.061Z,1005.49
2022-10-23T11:11:08.470Z,1005.52
2022-10-23T11:12:06.445Z,1005.52
2022-10-23T11:13:06.130Z,1005.57
2022-10-23T11:14:06.154Z,1005.54
2022-10-23T11:15:06.412Z,1005.56
2022-10-23T11:16:06.631Z,1005.61
2022-10-23T11:17:06.251Z,1005.59
2022-10-23T11:18:07.000Z,1005.58
2022-10-23T11:20:06.350Z,1005.44
2022-10-23T11:21:09.108Z,1005.44
2022-10-23T11:22:07.564Z,1005.42
2022-10-23T11:23:06.451Z,1005.30
2022-10-23T11:24:07.990Z,1005.22
2022-10-23T11:25:06.567Z,1005.12
2022-10-23T11:26:06.544Z,1005.17
2022-10-23T11:27:06.575Z,1005.22
2022-10-23T11:28:10.372Z,1005.17
2022-10-23T11:29:06.638Z,1005.06
2022-10-23T11:30:06.922Z,1005.06
2022-10-23T11:31:10.936Z,1005.07
2022-10-23T11:32:06.739Z,1005.04
2022-10-23T11:34:06.804Z,1004.98
2022-10-23T11:35:06.887Z,1004.98
2022-10-23T11:38:07.464Z,1005.02
2022-10-23T11:39:07.755Z,1005.00
2022-10-23T11:40:06.998Z,1005.07
2022-10-23T11:41:07.319Z,1005.06
2022-10-23T11:42:07.102Z,1005.06
2022-10-23T11:43:07.137Z,1005.04
2022-10-23T11:44:07.130Z,1005.14
2022-10-23T11:46:07.502Z,1005.08
2022-10-23T11:48:07.260Z,1005.08
2022-10-23T11:49:07.378Z,1005.08
2022-10-23T11:50:07.383Z,1005.05
2022-10-23T11:51:07.547Z,1005.07
2022-10-23T11:52:07.795Z,1005.06
2022-10-23T11:53:15.987Z,1005.08
2022-10-23T11:54:07.644Z,1005.01
2022-10-23T11:55:07.557Z,1005.04
2022-10-23T11:56:07.528Z,1005.03
2022-10-23T11:57:10.359Z,1005.03
2022-10-23T11:58:07.788Z,1005.05
2022-10-23T11:59:07.926Z,1005.02
2022-10-23T12:00:07.757Z,1005.05
2022-10-23T12:01:07.843Z,1004.97
2022-10-23T12:02:07.766Z,1004.98
2022-10-23T12:03:07.756Z,1004.97
2022-10-23T12:05:08.071Z,1004.95
2022-10-23T12:06:07.862Z,1004.95
2022-10-23T12:07:07.896Z,1004.93
2022-10-23T12:08:07.922Z,1004.93
2022-10-23T12:09:07.958Z,1004.94
2022-10-23T12:10:08.019Z,1004.93
2022-10-23T12:11:08.083Z,1004.88
2022-10-23T12:12:08.433Z,1004.92
2022-10-23T12:13:08.259Z,1004.92
2022-10-23T12:14:08.304Z,1004.87
2022-10-23T12:16:08.354Z,1004.83
2022-10-23T12:17:08.766Z,1004.76
2022-10-23T12:18:08.393Z,1004.79
2022-10-23T12:19:08.870Z,1004.72
2022-10-23T12:20:08.533Z,1004.71
2022-10-23T12:21:08.437Z,1004.67
2022-10-23T12:22:08.391Z,1004.74
2022-10-23T12:23:08.894Z,1004.72
2022-10-23T12:24:08.513Z,1004.75
2022-10-23T12:25:08.503Z,1004.75
2022-10-23T12:26:08.891Z,1004.75
2022-10-23T12:27:08.553Z,1004.70
2022-10-23T12:28:08.919Z,1004.69
2022-10-23T12:29:08.618Z,1004.68
2022-10-23T12:30:08.656Z,1004.65
2022-10-23T12:34:09.095Z,1004.58
2022-10-23T12:35:09.007Z,1004.51
2022-10-23T12:36:08.944Z,1004.46
2022-10-23T12:37:08.894Z,1004.52
2022-10-23T12:38:08.917Z,1004.49
2022-10-23T12:39:09.021Z,1004.38
2022-10-23T12:42:09.427Z,1004.42
2022-10-23T12:43:09.198Z,1004.36
2022-10-23T12:44:09.127Z,1004.42
2022-10-23T12:45:09.177Z,1004.44
2022-10-23T12:47:09.220Z,1004.45
2022-10-23T12:48:09.328Z,1004.44
2022-10-23T12:49:09.583Z,1004.42
2022-10-23T12:51:09.576Z,1004.38
2022-10-23T12:53:09.441Z,1004.28
2022-10-23T12:54:09.525Z,1004.28
2022-10-23T12:55:09.783Z,1004.25
2022-10-23T12:57:09.804Z,1004.22
2022-10-23T12:58:09.604Z,1004.11
2022-10-23T12:59:09.622Z,1004.06
2022-10-23T13:00:09.651Z,1004.09
2022-10-23T13:01:10.018Z,1004.08
2022-10-23T13:02:09.798Z,1004.09
2022-10-23T13:03:12.095Z,1004.02
2022-10-23T13:04:10.499Z,1004.04
2022-10-23T13:05:09.824Z,1004.06